sensor_id;sensor_type;location;lat;lon;timestamp;P1;durP1;ratioP1;P2;durP2;ratioP2
6406;SDS011;3236;51.022;6.818;2023-04-07T00:00:29;38.47;;;19.33;;
6406;SDS011;3236;51.022;6.818;2023-04-07T00:03:00;41.80;;;19.67;;
6406;SDS011;3236;51.022;6.818;2023-04-07T00:05:32;49.70;;;20.70;;
6406;SDS011;3236;51.022;6.818;2023-04-07T00:07:59;49.78;;;22.08;;
6406;SDS011;3236;51.022;6.818;2023-04-07T00:10:26;43.47;;;21.48;;
6406;SDS011;3236;51.022;6.818;2023-04-07T00:12:53;45.45;;;21.58;;
6406;SDS011;3236;51.022;6.818;2023-04-07T00:15:21;43.95;;;21.83;;
6406;SDS011;3236;51.022;6.818;2023-04-07T00:17:50;42.22;;;20.27;;
6406;SDS011;3236;51.022;6.818;2023-04-07T00:20:24;43.83;;;22.17;;
6406;SDS011;3236;51.022;6.818;2023-04-07T00:22:51;42.10;;;21.75;;
6406;SDS011;3236;51.022;6.818;2023-04-07T00:25:18;42.60;;;21.85;;
6406;SDS011;3236;51.022;6.818;2023-04-07T00:27:45;45.42;;;23.13;;
6406;SDS011;3236;51.022;6.818;2023-04-07T00:30:12;43.28;;;22.27;;
6406;SDS011;3236;51.022;6.818;2023-04-07T00:32:41;51.03;;;23.50;;
6406;SDS011;3236;51.022;6.818;2023-04-07T00:35:10;48.20;;;23.05;;
6406;SDS011;3236;51.022;6.818;2023-04-07T00:37:38;47.35;;;22.73;;
6406;SDS011;3236;51.022;6.818;2023-04-07T00:40:12;55.45;;;22.88;;
6406;SDS011;3236;51.022;6.818;2023-04-07T00:42:39;50.22;;;24.48;;
6406;SDS011;3236;51.022;6.818;2023-04-07T00:45:07;50.10;;;24.48;;
6406;SDS011;3236;51.022;6.818;2023-04-07T00:47:35;48.67;;;24.52;;
6406;SDS011;3236;51.022;6.818;2023-04-07T00:50:02;51.95;;;24.50;;
6406;SDS011;3236;51.022;6.818;2023-04-07T00:52:32;56.70;;;25.48;;
6406;SDS011;3236;51.022;6.818;2023-04-07T00:55:03;58.53;;;25.45;;
6406;SDS011;3236;51.022;6.818;2023-04-07T00:57:30;58.28;;;26.95;;
6406;SDS011;3236;51.022;6.818;2023-04-07T00:59:57;58.97;;;25.13;;
6406;SDS011;3236;51.022;6.818;2023-04-07T01:02:30;62.47;;;27.03;;
6406;SDS011;3236;51.022;6.818;2023-04-07T01:05:04;54.38;;;26.15;;
6406;SDS011;3236;51.022;6.818;2023-04-07T01:07:38;50.22;;;23.42;;
6406;SDS011;3236;51.022;6.818;2023-04-07T01:10:18;51.95;;;24.38;;
6406;SDS011;3236;51.022;6.818;2023-04-07T01:13:01;50.17;;;24.08;;
6406;SDS011;3236;51.022;6.818;2023-04-07T01:15:36;52.67;;;25.65;;
6406;SDS011;3236;51.022;6.818;2023-04-07T01:18:10;55.28;;;24.67;;
6406;SDS011;3236;51.022;6.818;2023-04-07T01:20:40;55.72;;;25.90;;
6406;SDS011;3236;51.022;6.818;2023-04-07T01:23:16;53.08;;;23.92;;
6406;SDS011;3236;51.022;6.818;2023-04-07T01:25:59;53.20;;;26.10;;
6406;SDS011;3236;51.022;6.818;2023-04-07T01:28:52;51.00;;;23.90;;
6406;SDS011;3236;51.022;6.818;2023-04-07T01:31:31;54.67;;;23.13;;
6406;SDS011;3236;51.022;6.818;2023-04-07T01:34:09;50.58;;;23.25;;
6406;SDS011;3236;51.022;6.818;2023-04-07T01:36:38;56.38;;;22.75;;
6406;SDS011;3236;51.022;6.818;2023-04-07T01:39:11;50.78;;;22.35;;
6406;SDS011;3236;51.022;6.818;2023-04-07T01:41:39;50.90;;;22.17;;
6406;SDS011;3236;51.022;6.818;2023-04-07T01:44:08;61.03;;;25.27;;
6406;SDS011;3236;51.022;6.818;2023-04-07T01:46:40;58.28;;;24.35;;
6406;SDS011;3236;51.022;6.818;2023-04-07T01:51:36;58.95;;;24.65;;
6406;SDS011;3236;51.022;6.818;2023-04-07T01:54:05;62.30;;;26.20;;
6406;SDS011;3236;51.022;6.818;2023-04-07T01:56:33;60.85;;;26.70;;
6406;SDS011;3236;51.022;6.818;2023-04-07T01:59:00;66.70;;;27.70;;
6406;SDS011;3236;51.022;6.818;2023-04-07T02:01:27;75.35;;;29.98;;
6406;SDS011;3236;51.022;6.818;2023-04-07T02:04:01;80.32;;;30.45;;
6406;SDS011;3236;51.022;6.818;2023-04-07T02:09:07;69.65;;;27.50;;
6406;SDS011;3236;51.022;6.818;2023-04-07T02:11:38;76.35;;;30.75;;
6406;SDS011;3236;51.022;6.818;2023-04-07T02:14:08;69.40;;;28.17;;
6406;SDS011;3236;51.022;6.818;2023-04-07T02:16:35;77.68;;;29.17;;
6406;SDS011;3236;51.022;6.818;2023-04-07T02:19:06;71.60;;;29.63;;
6406;SDS011;3236;51.022;6.818;2023-04-07T02:21:33;78.45;;;31.27;;
6406;SDS011;3236;51.022;6.818;2023-04-07T02:24:04;78.20;;;30.33;;
6406;SDS011;3236;51.022;6.818;2023-04-07T02:26:32;82.75;;;30.60;;
6406;SDS011;3236;51.022;6.818;2023-04-07T02:29:00;81.85;;;31.48;;
6406;SDS011;3236;51.022;6.818;2023-04-07T02:31:28;77.57;;;30.60;;
6406;SDS011;3236;51.022;6.818;2023-04-07T02:33:56;79.47;;;31.25;;
6406;SDS011;3236;51.022;6.818;2023-04-07T02:36:25;74.88;;;29.55;;
6406;SDS011;3236;51.022;6.818;2023-04-07T02:38:53;69.07;;;28.05;;
6406;SDS011;3236;51.022;6.818;2023-04-07T02:41:20;80.90;;;29.88;;
6406;SDS011;3236;51.022;6.818;2023-04-07T02:43:48;75.88;;;31.10;;
6406;SDS011;3236;51.022;6.818;2023-04-07T02:46:15;71.75;;;28.35;;
6406;SDS011;3236;51.022;6.818;2023-04-07T02:48:43;81.10;;;30.42;;
6406;SDS011;3236;51.022;6.818;2023-04-07T02:51:10;77.65;;;29.40;;
6406;SDS011;3236;51.022;6.818;2023-04-07T02:53:38;86.15;;;31.10;;
6406;SDS011;3236;51.022;6.818;2023-04-07T02:56:06;81.15;;;31.58;;
6406;SDS011;3236;51.022;6.818;2023-04-07T02:58:33;83.50;;;29.30;;
6406;SDS011;3236;51.022;6.818;2023-04-07T03:01:01;75.85;;;30.67;;
6406;SDS011;3236;51.022;6.818;2023-04-07T03:03:29;84.10;;;31.05;;
6406;SDS011;3236;51.022;6.818;2023-04-07T03:05:56;82.95;;;29.40;;
6406;SDS011;3236;51.022;6.818;2023-04-07T03:08:25;82.57;;;30.25;;
6406;SDS011;3236;51.022;6.818;2023-04-07T03:10:53;81.85;;;30.75;;
6406;SDS011;3236;51.022;6.818;2023-04-07T03:13:21;84.15;;;30.30;;
6406;SDS011;3236;51.022;6.818;2023-04-07T03:15:48;80.13;;;31.08;;
6406;SDS011;3236;51.022;6.818;2023-04-07T03:18:16;82.45;;;30.75;;
6406;SDS011;3236;51.022;6.818;2023-04-07T03:20:47;86.70;;;31.20;;
6406;SDS011;3236;51.022;6.818;2023-04-07T03:23:14;84.60;;;31.73;;
6406;SDS011;3236;51.022;6.818;2023-04-07T03:25:41;93.55;;;32.83;;
6406;SDS011;3236;51.022;6.818;2023-04-07T03:28:10;82.88;;;31.33;;
6406;SDS011;3236;51.022;6.818;2023-04-07T03:30:38;87.28;;;30.27;;
6406;SDS011;3236;51.022;6.818;2023-04-07T03:33:05;87.35;;;30.30;;
6406;SDS011;3236;51.022;6.818;2023-04-07T03:35:33;75.55;;;29.10;;
6406;SDS011;3236;51.022;6.818;2023-04-07T03:38:00;80.13;;;29.30;;
6406;SDS011;3236;51.022;6.818;2023-04-07T03:40:27;75.20;;;29.23;;
6406;SDS011;3236;51.022;6.818;2023-04-07T03:42:54;70.97;;;26.23;;
6406;SDS011;3236;51.022;6.818;2023-04-07T03:45:23;87.80;;;30.77;;
6406;SDS011;3236;51.022;6.818;2023-04-07T03:47:50;81.05;;;28.67;;
6406;SDS011;3236;51.022;6.818;2023-04-07T03:50:18;75.63;;;28.80;;
6406;SDS011;3236;51.022;6.818;2023-04-07T03:52:45;76.25;;;27.38;;
6406;SDS011;3236;51.022;6.818;2023-04-07T03:55:13;78.28;;;28.77;;
6406;SDS011;3236;51.022;6.818;2023-04-07T03:57:40;77.32;;;29.42;;
6406;SDS011;3236;51.022;6.818;2023-04-07T04:00:08;75.57;;;28.35;;
6406;SDS011;3236;51.022;6.818;2023-04-07T04:02:40;73.45;;;28.00;;
6406;SDS011;3236;51.022;6.818;2023-04-07T04:05:07;77.50;;;30.60;;
6406;SDS011;3236;51.022;6.818;2023-04-07T04:07:34;82.65;;;29.40;;
6406;SDS011;3236;51.022;6.818;2023-04-07T04:10:01;77.70;;;30.88;;
6406;SDS011;3236;51.022;6.818;2023-04-07T04:12:30;79.22;;;29.80;;
6406;SDS011;3236;51.022;6.818;2023-04-07T04:14:57;83.35;;;29.88;;
6406;SDS011;3236;51.022;6.818;2023-04-07T04:17:24;75.80;;;29.83;;
6406;SDS011;3236;51.022;6.818;2023-04-07T04:19:53;82.82;;;31.15;;
6406;SDS011;3236;51.022;6.818;2023-04-07T04:22:20;72.68;;;29.95;;
6406;SDS011;3236;51.022;6.818;2023-04-07T04:24:47;86.95;;;30.73;;
6406;SDS011;3236;51.022;6.818;2023-04-07T04:27:14;87.10;;;29.75;;
6406;SDS011;3236;51.022;6.818;2023-04-07T04:29:41;78.10;;;28.75;;
6406;SDS011;3236;51.022;6.818;2023-04-07T04:32:10;72.95;;;29.45;;
6406;SDS011;3236;51.022;6.818;2023-04-07T04:34:37;81.45;;;28.77;;
6406;SDS011;3236;51.022;6.818;2023-04-07T04:37:07;70.35;;;28.60;;
6406;SDS011;3236;51.022;6.818;2023-04-07T04:39:35;70.60;;;27.40;;
6406;SDS011;3236;51.022;6.818;2023-04-07T04:42:02;72.65;;;27.20;;
6406;SDS011;3236;51.022;6.818;2023-04-07T04:44:30;73.53;;;28.92;;
6406;SDS011;3236;51.022;6.818;2023-04-07T04:46:57;75.63;;;26.80;;
6406;SDS011;3236;51.022;6.818;2023-04-07T04:49:24;73.68;;;29.17;;
6406;SDS011;3236;51.022;6.818;2023-04-07T04:51:54;74.55;;;27.00;;
6406;SDS011;3236;51.022;6.818;2023-04-07T04:54:26;71.47;;;27.90;;
6406;SDS011;3236;51.022;6.818;2023-04-07T04:57:01;74.28;;;26.52;;
6406;SDS011;3236;51.022;6.818;2023-04-07T04:59:28;65.28;;;24.45;;
6406;SDS011;3236;51.022;6.818;2023-04-07T05:01:55;61.65;;;23.80;;
6406;SDS011;3236;51.022;6.818;2023-04-07T05:04:23;67.60;;;24.17;;
6406;SDS011;3236;51.022;6.818;2023-04-07T05:06:50;58.53;;;22.50;;
6406;SDS011;3236;51.022;6.818;2023-04-07T05:09:17;58.72;;;21.20;;
6406;SDS011;3236;51.022;6.818;2023-04-07T05:11:46;53.08;;;20.52;;
6406;SDS011;3236;51.022;6.818;2023-04-07T05:14:13;59.05;;;22.13;;
6406;SDS011;3236;51.022;6.818;2023-04-07T05:16:41;49.72;;;19.00;;
6406;SDS011;3236;51.022;6.818;2023-04-07T05:19:08;44.97;;;19.65;;
6406;SDS011;3236;51.022;6.818;2023-04-07T05:21:39;54.08;;;20.27;;
6406;SDS011;3236;51.022;6.818;2023-04-07T05:24:10;49.35;;;19.13;;
6406;SDS011;3236;51.022;6.818;2023-04-07T05:29:06;46.80;;;16.90;;
6406;SDS011;3236;51.022;6.818;2023-04-07T05:31:33;42.92;;;17.25;;
6406;SDS011;3236;51.022;6.818;2023-04-07T05:34:11;41.03;;;17.33;;
6406;SDS011;3236;51.022;6.818;2023-04-07T05:36:38;42.95;;;16.90;;
6406;SDS011;3236;51.022;6.818;2023-04-07T05:39:05;39.00;;;16.60;;
6406;SDS011;3236;51.022;6.818;2023-04-07T05:41:33;37.78;;;15.68;;
6406;SDS011;3236;51.022;6.818;2023-04-07T05:44:00;39.08;;;15.85;;
6406;SDS011;3236;51.022;6.818;2023-04-07T05:46:29;40.05;;;15.65;;
6406;SDS011;3236;51.022;6.818;2023-04-07T05:48:56;44.58;;;16.30;;
6406;SDS011;3236;51.022;6.818;2023-04-07T05:51:23;34.38;;;14.88;;
6406;SDS011;3236;51.022;6.818;2023-04-07T05:53:50;29.55;;;14.43;;
6406;SDS011;3236;51.022;6.818;2023-04-07T05:56:17;39.08;;;15.73;;
6406;SDS011;3236;51.022;6.818;2023-04-07T05:58:45;35.25;;;14.32;;
6406;SDS011;3236;51.022;6.818;2023-04-07T06:01:16;32.13;;;13.75;;
6406;SDS011;3236;51.022;6.818;2023-04-07T06:03:44;35.00;;;13.23;;
6406;SDS011;3236;51.022;6.818;2023-04-07T06:06:12;31.90;;;12.25;;
6406;SDS011;3236;51.022;6.818;2023-04-07T06:08:40;26.65;;;11.95;;
6406;SDS011;3236;51.022;6.818;2023-04-07T06:11:07;22.08;;;10.63;;
6406;SDS011;3236;51.022;6.818;2023-04-07T06:13:34;23.60;;;11.50;;
6406;SDS011;3236;51.022;6.818;2023-04-07T06:16:01;18.88;;;9.55;;
6406;SDS011;3236;51.022;6.818;2023-04-07T06:18:28;25.80;;;10.57;;
6406;SDS011;3236;51.022;6.818;2023-04-07T06:20:56;29.17;;;10.70;;
6406;SDS011;3236;51.022;6.818;2023-04-07T06:23:24;24.88;;;10.50;;
6406;SDS011;3236;51.022;6.818;2023-04-07T06:25:51;26.00;;;10.35;;
6406;SDS011;3236;51.022;6.818;2023-04-07T06:28:18;20.15;;;9.45;;
6406;SDS011;3236;51.022;6.818;2023-04-07T06:30:46;19.65;;;8.50;;
6406;SDS011;3236;51.022;6.818;2023-04-07T06:33:14;19.10;;;9.52;;
6406;SDS011;3236;51.022;6.818;2023-04-07T06:35:41;23.67;;;8.02;;
6406;SDS011;3236;51.022;6.818;2023-04-07T06:38:10;18.20;;;8.20;;
6406;SDS011;3236;51.022;6.818;2023-04-07T06:40:37;18.38;;;8.82;;
6406;SDS011;3236;51.022;6.818;2023-04-07T06:43:04;18.75;;;8.05;;
6406;SDS011;3236;51.022;6.818;2023-04-07T06:45:42;24.80;;;7.90;;
6406;SDS011;3236;51.022;6.818;2023-04-07T06:48:09;22.70;;;7.47;;
6406;SDS011;3236;51.022;6.818;2023-04-07T06:50:36;19.70;;;8.05;;
6406;SDS011;3236;51.022;6.818;2023-04-07T06:53:03;16.35;;;7.22;;
6406;SDS011;3236;51.022;6.818;2023-04-07T06:55:31;16.10;;;6.90;;
6406;SDS011;3236;51.022;6.818;2023-04-07T06:57:58;17.98;;;8.23;;
6406;SDS011;3236;51.022;6.818;2023-04-07T07:00:25;16.92;;;7.05;;
6406;SDS011;3236;51.022;6.818;2023-04-07T07:02:56;20.42;;;7.47;;
6406;SDS011;3236;51.022;6.818;2023-04-07T07:05:23;20.20;;;7.90;;
6406;SDS011;3236;51.022;6.818;2023-04-07T07:07:50;18.00;;;7.63;;
6406;SDS011;3236;51.022;6.818;2023-04-07T07:10:18;17.38;;;8.25;;
6406;SDS011;3236;51.022;6.818;2023-04-07T07:12:48;17.92;;;8.27;;
6406;SDS011;3236;51.022;6.818;2023-04-07T07:15:15;18.88;;;8.20;;
6406;SDS011;3236;51.022;6.818;2023-04-07T07:17:42;19.95;;;8.50;;
6406;SDS011;3236;51.022;6.818;2023-04-07T07:20:09;17.85;;;8.00;;
6406;SDS011;3236;51.022;6.818;2023-04-07T07:22:37;19.85;;;8.52;;
6406;SDS011;3236;51.022;6.818;2023-04-07T07:25:04;18.55;;;7.97;;
6406;SDS011;3236;51.022;6.818;2023-04-07T07:27:32;17.95;;;8.65;;
6406;SDS011;3236;51.022;6.818;2023-04-07T07:30:00;19.38;;;8.20;;
6406;SDS011;3236;51.022;6.818;2023-04-07T07:32:27;17.33;;;8.05;;
6406;SDS011;3236;51.022;6.818;2023-04-07T07:34:54;19.25;;;8.40;;
6406;SDS011;3236;51.022;6.818;2023-04-07T07:37:22;20.77;;;8.27;;
6406;SDS011;3236;51.022;6.818;2023-04-07T07:39:49;20.35;;;8.02;;
6406;SDS011;3236;51.022;6.818;2023-04-07T07:42:16;19.90;;;8.40;;
6406;SDS011;3236;51.022;6.818;2023-04-07T07:44:43;15.43;;;7.55;;
6406;SDS011;3236;51.022;6.818;2023-04-07T07:47:12;18.90;;;7.65;;
6406;SDS011;3236;51.022;6.818;2023-04-07T07:49:40;19.05;;;8.25;;
6406;SDS011;3236;51.022;6.818;2023-04-07T07:52:07;17.38;;;8.18;;
6406;SDS011;3236;51.022;6.818;2023-04-07T07:54:35;15.65;;;7.60;;
6406;SDS011;3236;51.022;6.818;2023-04-07T07:57:02;19.90;;;8.95;;
6406;SDS011;3236;51.022;6.818;2023-04-07T07:59:30;23.55;;;9.48;;
6406;SDS011;3236;51.022;6.818;2023-04-07T08:01:57;17.35;;;8.43;;
6406;SDS011;3236;51.022;6.818;2023-04-07T08:04:26;21.90;;;9.57;;
6406;SDS011;3236;51.022;6.818;2023-04-07T08:06:53;20.55;;;9.68;;
6406;SDS011;3236;51.022;6.818;2023-04-07T08:09:20;22.55;;;10.15;;
6406;SDS011;3236;51.022;6.818;2023-04-07T08:11:47;19.73;;;9.77;;
6406;SDS011;3236;51.022;6.818;2023-04-07T08:14:15;21.30;;;9.85;;
6406;SDS011;3236;51.022;6.818;2023-04-07T08:16:42;21.42;;;10.45;;
6406;SDS011;3236;51.022;6.818;2023-04-07T08:19:13;26.77;;;9.82;;
6406;SDS011;3236;51.022;6.818;2023-04-07T08:21:42;19.58;;;9.63;;
6406;SDS011;3236;51.022;6.818;2023-04-07T08:24:14;21.65;;;9.57;;
6406;SDS011;3236;51.022;6.818;2023-04-07T08:26:43;17.38;;;9.10;;
6406;SDS011;3236;51.022;6.818;2023-04-07T08:29:11;18.85;;;9.27;;
6406;SDS011;3236;51.022;6.818;2023-04-07T08:31:43;24.08;;;8.98;;
6406;SDS011;3236;51.022;6.818;2023-04-07T08:34:10;20.08;;;9.00;;
6406;SDS011;3236;51.022;6.818;2023-04-07T08:36:38;19.65;;;9.20;;
6406;SDS011;3236;51.022;6.818;2023-04-07T08:39:06;15.25;;;8.27;;
6406;SDS011;3236;51.022;6.818;2023-04-07T08:41:35;19.00;;;9.13;;
6406;SDS011;3236;51.022;6.818;2023-04-07T08:44:03;17.48;;;8.18;;
6406;SDS011;3236;51.022;6.818;2023-04-07T08:46:31;17.88;;;9.05;;
6406;SDS011;3236;51.022;6.818;2023-04-07T08:48:59;15.95;;;8.73;;
6406;SDS011;3236;51.022;6.818;2023-04-07T08:51:28;15.30;;;8.32;;
6406;SDS011;3236;51.022;6.818;2023-04-07T08:53:59;17.42;;;8.18;;
6406;SDS011;3236;51.022;6.818;2023-04-07T08:56:33;15.00;;;7.97;;
6406;SDS011;3236;51.022;6.818;2023-04-07T08:59:05;14.52;;;8.15;;
6406;SDS011;3236;51.022;6.818;2023-04-07T09:01:33;18.75;;;8.85;;
6406;SDS011;3236;51.022;6.818;2023-04-07T09:04:02;16.25;;;8.05;;
6406;SDS011;3236;51.022;6.818;2023-04-07T09:06:29;22.17;;;8.65;;
6406;SDS011;3236;51.022;6.818;2023-04-07T09:08:57;17.48;;;7.22;;
6406;SDS011;3236;51.022;6.818;2023-04-07T09:11:25;14.07;;;7.40;;
6406;SDS011;3236;51.022;6.818;2023-04-07T09:13:58;14.10;;;7.80;;
6406;SDS011;3236;51.022;6.818;2023-04-07T09:16:26;17.25;;;8.15;;
6406;SDS011;3236;51.022;6.818;2023-04-07T09:18:55;17.42;;;8.05;;
6406;SDS011;3236;51.022;6.818;2023-04-07T09:21:22;21.85;;;8.93;;
6406;SDS011;3236;51.022;6.818;2023-04-07T09:23:51;15.70;;;7.90;;
6406;SDS011;3236;51.022;6.818;2023-04-07T09:26:19;18.58;;;8.40;;
6406;SDS011;3236;51.022;6.818;2023-04-07T09:28:56;16.40;;;7.78;;
6406;SDS011;3236;51.022;6.818;2023-04-07T09:34:15;18.50;;;8.07;;
6406;SDS011;3236;51.022;6.818;2023-04-07T09:36:52;25.63;;;9.40;;
6406;SDS011;3236;51.022;6.818;2023-04-07T09:39:25;19.60;;;8.32;;
6406;SDS011;3236;51.022;6.818;2023-04-07T09:42:05;16.50;;;9.25;;
6406;SDS011;3236;51.022;6.818;2023-04-07T09:44:38;14.27;;;7.97;;
6406;SDS011;3236;51.022;6.818;2023-04-07T09:47:05;21.10;;;9.07;;
6406;SDS011;3236;51.022;6.818;2023-04-07T09:49:34;19.02;;;9.77;;
6406;SDS011;3236;51.022;6.818;2023-04-07T09:52:14;20.48;;;8.43;;
6406;SDS011;3236;51.022;6.818;2023-04-07T09:54:44;24.13;;;10.20;;
6406;SDS011;3236;51.022;6.818;2023-04-07T09:57:12;19.65;;;9.23;;
6406;SDS011;3236;51.022;6.818;2023-04-07T09:59:43;23.17;;;9.98;;
6406;SDS011;3236;51.022;6.818;2023-04-07T10:02:11;22.10;;;10.43;;
6406;SDS011;3236;51.022;6.818;2023-04-07T10:04:38;28.10;;;10.52;;
6406;SDS011;3236;51.022;6.818;2023-04-07T10:07:06;25.27;;;9.95;;
6406;SDS011;3236;51.022;6.818;2023-04-07T10:09:33;25.25;;;11.23;;
6406;SDS011;3236;51.022;6.818;2023-04-07T10:12:00;22.95;;;11.15;;
6406;SDS011;3236;51.022;6.818;2023-04-07T10:14:29;24.20;;;10.93;;
6406;SDS011;3236;51.022;6.818;2023-04-07T10:16:59;21.75;;;10.82;;
6406;SDS011;3236;51.022;6.818;2023-04-07T10:19:29;31.23;;;11.52;;
6406;SDS011;3236;51.022;6.818;2023-04-07T10:21:57;26.08;;;12.27;;
6406;SDS011;3236;51.022;6.818;2023-04-07T10:24:35;23.10;;;10.85;;
6406;SDS011;3236;51.022;6.818;2023-04-07T10:27:13;25.25;;;12.07;;
6406;SDS011;3236;51.022;6.818;2023-04-07T10:29:43;27.23;;;11.85;;
6406;SDS011;3236;51.022;6.818;2023-04-07T10:32:15;29.20;;;12.25;;
6406;SDS011;3236;51.022;6.818;2023-04-07T10:34:55;28.02;;;11.43;;
6406;SDS011;3236;51.022;6.818;2023-04-07T10:37:24;26.03;;;11.00;;
6406;SDS011;3236;51.022;6.818;2023-04-07T10:42:52;30.35;;;11.82;;
6406;SDS011;3236;51.022;6.818;2023-04-07T10:48:29;24.65;;;10.32;;
6406;SDS011;3236;51.022;6.818;2023-04-07T10:51:11;24.83;;;11.50;;
6406;SDS011;3236;51.022;6.818;2023-04-07T10:57:10;26.55;;;10.32;;
6406;SDS011;3236;51.022;6.818;2023-04-07T11:02:40;29.35;;;10.50;;
6406;SDS011;3236;51.022;6.818;2023-04-07T11:05:09;21.67;;;10.50;;
6406;SDS011;3236;51.022;6.818;2023-04-07T11:07:47;22.98;;;10.10;;
6406;SDS011;3236;51.022;6.818;2023-04-07T11:10:29;28.15;;;10.75;;
6406;SDS011;3236;51.022;6.818;2023-04-07T11:12:58;19.80;;;9.63;;
6406;SDS011;3236;51.022;6.818;2023-04-07T11:15:34;21.67;;;9.13;;
6406;SDS011;3236;51.022;6.818;2023-04-07T11:18:14;19.67;;;10.27;;
6406;SDS011;3236;51.022;6.818;2023-04-07T11:20:49;24.50;;;9.77;;
6406;SDS011;3236;51.022;6.818;2023-04-07T11:23:17;20.33;;;9.13;;
6406;SDS011;3236;51.022;6.818;2023-04-07T11:25:47;19.65;;;9.05;;
6406;SDS011;3236;51.022;6.818;2023-04-07T11:28:16;21.88;;;9.55;;
6406;SDS011;3236;51.022;6.818;2023-04-07T11:30:47;18.33;;;9.90;;
6406;SDS011;3236;51.022;6.818;2023-04-07T11:33:17;23.67;;;9.05;;
6406;SDS011;3236;51.022;6.818;2023-04-07T11:35:51;16.67;;;8.90;;
6406;SDS011;3236;51.022;6.818;2023-04-07T11:38:20;20.02;;;9.18;;
6406;SDS011;3236;51.022;6.818;2023-04-07T11:40:48;16.67;;;9.52;;
6406;SDS011;3236;51.022;6.818;2023-04-07T11:43:16;16.63;;;9.02;;
6406;SDS011;3236;51.022;6.818;2023-04-07T11:45:45;16.20;;;9.85;;
6406;SDS011;3236;51.022;6.818;2023-04-07T11:51:05;15.93;;;8.65;;
6406;SDS011;3236;51.022;6.818;2023-04-07T11:53:46;21.15;;;10.57;;
6406;SDS011;3236;51.022;6.818;2023-04-07T11:56:14;12.88;;;8.65;;
6406;SDS011;3236;51.022;6.818;2023-04-07T11:58:46;15.57;;;8.43;;
6406;SDS011;3236;51.022;6.818;2023-04-07T12:01:15;13.63;;;8.55;;
6406;SDS011;3236;51.022;6.818;2023-04-07T12:03:58;15.00;;;8.55;;
6406;SDS011;3236;51.022;6.818;2023-04-07T12:06:29;15.05;;;8.50;;
6406;SDS011;3236;51.022;6.818;2023-04-07T12:09:04;13.27;;;7.22;;
6406;SDS011;3236;51.022;6.818;2023-04-07T12:11:32;13.45;;;7.00;;
6406;SDS011;3236;51.022;6.818;2023-04-07T12:14:00;15.48;;;7.25;;
6406;SDS011;3236;51.022;6.818;2023-04-07T12:16:32;12.70;;;7.65;;
6406;SDS011;3236;51.022;6.818;2023-04-07T12:19:03;14.02;;;8.05;;
6406;SDS011;3236;51.022;6.818;2023-04-07T12:21:32;13.98;;;6.90;;
6406;SDS011;3236;51.022;6.818;2023-04-07T12:23:59;14.80;;;7.38;;
6406;SDS011;3236;51.022;6.818;2023-04-07T12:26:28;13.00;;;7.78;;
6406;SDS011;3236;51.022;6.818;2023-04-07T12:28:55;16.23;;;7.78;;
6406;SDS011;3236;51.022;6.818;2023-04-07T12:31:29;15.30;;;8.02;;
6406;SDS011;3236;51.022;6.818;2023-04-07T12:33:56;16.48;;;8.93;;
6406;SDS011;3236;51.022;6.818;2023-04-07T12:36:24;18.85;;;9.77;;
6406;SDS011;3236;51.022;6.818;2023-04-07T12:38:54;16.75;;;8.43;;
6406;SDS011;3236;51.022;6.818;2023-04-07T12:41:21;23.55;;;9.15;;
6406;SDS011;3236;51.022;6.818;2023-04-07T12:43:49;20.27;;;9.50;;
6406;SDS011;3236;51.022;6.818;2023-04-07T12:46:17;21.13;;;9.40;;
6406;SDS011;3236;51.022;6.818;2023-04-07T12:48:45;22.75;;;9.38;;
6406;SDS011;3236;51.022;6.818;2023-04-07T12:51:13;20.20;;;9.68;;
6406;SDS011;3236;51.022;6.818;2023-04-07T12:53:41;25.05;;;11.75;;
6406;SDS011;3236;51.022;6.818;2023-04-07T12:56:09;23.88;;;11.38;;
6406;SDS011;3236;51.022;6.818;2023-04-07T12:58:37;25.33;;;11.35;;
6406;SDS011;3236;51.022;6.818;2023-04-07T13:01:04;20.00;;;11.02;;
6406;SDS011;3236;51.022;6.818;2023-04-07T13:03:32;26.73;;;10.60;;
6406;SDS011;3236;51.022;6.818;2023-04-07T13:06:02;22.75;;;11.38;;
6406;SDS011;3236;51.022;6.818;2023-04-07T13:08:30;16.13;;;9.75;;
6406;SDS011;3236;51.022;6.818;2023-04-07T13:10:57;23.60;;;11.07;;
6406;SDS011;3236;51.022;6.818;2023-04-07T13:13:25;23.80;;;12.18;;
6406;SDS011;3236;51.022;6.818;2023-04-07T13:15:56;17.67;;;10.38;;
6406;SDS011;3236;51.022;6.818;2023-04-07T13:18:24;24.58;;;11.25;;
6406;SDS011;3236;51.022;6.818;2023-04-07T13:20:57;20.60;;;10.60;;
6406;SDS011;3236;51.022;6.818;2023-04-07T13:23:24;22.70;;;9.48;;
6406;SDS011;3236;51.022;6.818;2023-04-07T13:25:51;16.73;;;8.68;;
6406;SDS011;3236;51.022;6.818;2023-04-07T13:28:20;20.50;;;9.00;;
6406;SDS011;3236;51.022;6.818;2023-04-07T13:30:48;15.68;;;8.98;;
6406;SDS011;3236;51.022;6.818;2023-04-07T13:33:16;12.85;;;7.93;;
6406;SDS011;3236;51.022;6.818;2023-04-07T13:35:43;14.93;;;7.55;;
6406;SDS011;3236;51.022;6.818;2023-04-07T13:38:10;16.65;;;8.32;;
6406;SDS011;3236;51.022;6.818;2023-04-07T13:40:37;15.10;;;7.53;;
6406;SDS011;3236;51.022;6.818;2023-04-07T13:43:08;21.20;;;8.25;;
6406;SDS011;3236;51.022;6.818;2023-04-07T13:45:36;12.52;;;7.60;;
6406;SDS011;3236;51.022;6.818;2023-04-07T13:48:05;16.95;;;7.70;;
6406;SDS011;3236;51.022;6.818;2023-04-07T13:50:35;13.18;;;6.88;;
6406;SDS011;3236;51.022;6.818;2023-04-07T13:53:06;12.77;;;7.20;;
6406;SDS011;3236;51.022;6.818;2023-04-07T13:55:33;11.95;;;6.78;;
6406;SDS011;3236;51.022;6.818;2023-04-07T13:58:02;16.27;;;8.48;;
6406;SDS011;3236;51.022;6.818;2023-04-07T14:00:30;12.90;;;8.30;;
6406;SDS011;3236;51.022;6.818;2023-04-07T14:02:59;20.92;;;8.98;;
6406;SDS011;3236;51.022;6.818;2023-04-07T14:05:28;16.83;;;8.57;;
6406;SDS011;3236;51.022;6.818;2023-04-07T14:07:55;21.88;;;9.07;;
6406;SDS011;3236;51.022;6.818;2023-04-07T14:10:22;17.42;;;9.48;;
6406;SDS011;3236;51.022;6.818;2023-04-07T14:12:49;12.82;;;8.73;;
6406;SDS011;3236;51.022;6.818;2023-04-07T14:15:22;14.55;;;8.13;;
6406;SDS011;3236;51.022;6.818;2023-04-07T14:21:13;12.25;;;7.47;;
6406;SDS011;3236;51.022;6.818;2023-04-07T14:23:41;15.05;;;7.72;;
6406;SDS011;3236;51.022;6.818;2023-04-07T14:29:29;11.73;;;7.18;;
6406;SDS011;3236;51.022;6.818;2023-04-07T14:31:57;21.67;;;7.47;;
6406;SDS011;3236;51.022;6.818;2023-04-07T14:34:25;11.48;;;7.38;;
6406;SDS011;3236;51.022;6.818;2023-04-07T14:36:54;14.52;;;8.32;;
6406;SDS011;3236;51.022;6.818;2023-04-07T14:39:23;15.45;;;7.60;;
6406;SDS011;3236;51.022;6.818;2023-04-07T14:41:51;16.67;;;7.60;;
6406;SDS011;3236;51.022;6.818;2023-04-07T14:44:18;13.85;;;8.07;;
6406;SDS011;3236;51.022;6.818;2023-04-07T14:46:46;14.15;;;8.35;;
6406;SDS011;3236;51.022;6.818;2023-04-07T14:49:14;14.55;;;8.25;;
6406;SDS011;3236;51.022;6.818;2023-04-07T14:51:53;13.57;;;7.55;;
6406;SDS011;3236;51.022;6.818;2023-04-07T14:54:22;13.95;;;7.60;;
6406;SDS011;3236;51.022;6.818;2023-04-07T14:56:49;15.40;;;8.57;;
6406;SDS011;3236;51.022;6.818;2023-04-07T14:59:16;15.95;;;8.43;;
6406;SDS011;3236;51.022;6.818;2023-04-07T15:01:44;15.50;;;8.65;;
6406;SDS011;3236;51.022;6.818;2023-04-07T15:04:11;15.45;;;8.30;;
6406;SDS011;3236;51.022;6.818;2023-04-07T15:06:39;20.25;;;8.65;;
6406;SDS011;3236;51.022;6.818;2023-04-07T15:09:13;15.48;;;8.63;;
6406;SDS011;3236;51.022;6.818;2023-04-07T15:11:42;17.90;;;8.88;;
6406;SDS011;3236;51.022;6.818;2023-04-07T15:14:10;15.40;;;9.85;;
6406;SDS011;3236;51.022;6.818;2023-04-07T15:16:37;21.13;;;8.82;;
6406;SDS011;3236;51.022;6.818;2023-04-07T15:19:04;17.15;;;8.35;;
6406;SDS011;3236;51.022;6.818;2023-04-07T15:21:36;15.75;;;7.97;;
6406;SDS011;3236;51.022;6.818;2023-04-07T15:44:33;12.70;;;6.97;;
6406;SDS011;3236;51.022;6.818;2023-04-07T15:47:06;14.10;;;6.78;;
6406;SDS011;3236;51.022;6.818;2023-04-07T15:49:33;13.27;;;6.70;;
6406;SDS011;3236;51.022;6.818;2023-04-07T15:52:03;15.13;;;6.43;;
6406;SDS011;3236;51.022;6.818;2023-04-07T15:54:32;11.65;;;6.75;;
6406;SDS011;3236;51.022;6.818;2023-04-07T15:57:12;14.88;;;7.05;;
6406;SDS011;3236;51.022;6.818;2023-04-07T15:59:42;11.57;;;6.20;;